sensor_id;sensor_type;location;lat;lon;timestamp;temperature;humidity
3356;DHT22;1691;52.486;13.374;2023-08-01T00:00:16;18.90;95.30
3356;DHT22;1691;52.486;13.374;2023-08-01T00:02:43;18.80;95.40
3356;DHT22;1691;52.486;13.374;2023-08-01T00:05:10;18.80;95.60
3356;DHT22;1691;52.486;13.374;2023-08-01T00:07:37;18.70;95.80
3356;DHT22;1691;52.486;13.374;2023-08-01T00:10:05;18.70;96.00
3356;DHT22;1691;52.486;13.374;2023-08-01T00:12:32;18.70;96.20
3356;DHT22;1691;52.486;13.374;2023-08-01T00:14:59;18.60;96.50
3356;DHT22;1691;52.486;13.374;2023-08-01T00:17:26;18.60;96.60
3356;DHT22;1691;52.486;13.374;2023-08-01T00:19:52;18.50;96.90
3356;DHT22;1691;52.486;13.374;2023-08-01T00:22:21;18.50;97.10
3356;DHT22;1691;52.486;13.374;2023-08-01T00:24:48;18.40;97.30
3356;DHT22;1691;52.486;13.374;2023-08-01T00:27:15;18.40;97.50
3356;DHT22;1691;52.486;13.374;2023-08-01T00:29:42;18.30;97.70
3356;DHT22;1691;52.486;13.374;2023-08-01T00:32:09;18.20;97.90
3356;DHT22;1691;52.486;13.374;2023-08-01T00:34:36;18.20;98.10
3356;DHT22;1691;52.486;13.374;2023-08-01T00:37:03;18.10;98.50
3356;DHT22;1691;52.486;13.374;2023-08-01T00:39:30;18.00;98.70
3356;DHT22;1691;52.486;13.374;2023-08-01T00:41:57;17.90;98.70
3356;DHT22;1691;52.486;13.374;2023-08-01T00:44:24;17.80;98.70
3356;DHT22;1691;52.486;13.374;2023-08-01T00:46:51;17.80;98.70
3356;DHT22;1691;52.486;13.374;2023-08-01T00:49:18;17.80;98.70
3356;DHT22;1691;52.486;13.374;2023-08-01T00:51:44;17.70;98.70
3356;DHT22;1691;52.486;13.374;2023-08-01T00:54:11;17.70;98.70
3356;DHT22;1691;52.486;13.374;2023-08-01T00:56:38;17.60;98.70
3356;DHT22;1691;52.486;13.374;2023-08-01T00:59:05;17.60;98.70
3356;DHT22;1691;52.486;13.374;2023-08-01T01:01:33;17.60;98.70
3356;DHT22;1691;52.486;13.374;2023-08-01T01:04:00;17.60;98.70
3356;DHT22;1691;52.486;13.374;2023-08-01T01:06:43;17.50;98.70
3356;DHT22;1691;52.486;13.374;2023-08-01T01:09:19;17.50;98.70
3356;DHT22;1691;52.486;13.374;2023-08-01T01:11:46;17.50;98.70
3356;DHT22;1691;52.486;13.374;2023-08-01T01:14:13;17.50;98.70
3356;DHT22;1691;52.486;13.374;2023-08-01T01:16:40;17.50;98.70
3356;DHT22;1691;52.486;13.374;2023-08-01T01:19:09;17.50;98.70
3356;DHT22;1691;52.486;13.374;2023-08-01T01:24:44;17.60;98.70
3356;DHT22;1691;52.486;13.374;2023-08-01T01:27:12;17.60;98.70
3356;DHT22;1691;52.486;13.374;2023-08-01T01:29:40;17.60;98.70
3356;DHT22;1691;52.486;13.374;2023-08-01T01:32:09;17.50;98.70
3356;DHT22;1691;52.486;13.374;2023-08-01T01:34:36;17.60;98.70
3356;DHT22;1691;52.486;13.374;2023-08-01T01:37:03;17.60;98.70
3356;DHT22;1691;52.486;13.374;2023-08-01T01:39:30;17.50;98.70
3356;DHT22;1691;52.486;13.374;2023-08-01T01:41:56;17.60;98.70
3356;DHT22;1691;52.486;13.374;2023-08-01T01:44:23;17.60;98.70
3356;DHT22;1691;52.486;13.374;2023-08-01T01:46:50;17.60;98.70
3356;DHT22;1691;52.486;13.374;2023-08-01T01:49:17;17.60;98.70
3356;DHT22;1691;52.486;13.374;2023-08-01T01:51:44;17.60;98.70
3356;DHT22;1691;52.486;13.374;2023-08-01T01:54:10;17.60;98.70
3356;DHT22;1691;52.486;13.374;2023-08-01T01:56:37;17.60;98.70
3356;DHT22;1691;52.486;13.374;2023-08-01T01:59:04;17.60;98.70
3356;DHT22;1691;52.486;13.374;2023-08-01T02:01:31;17.70;98.70
3356;DHT22;1691;52.486;13.374;2023-08-01T02:03:58;17.70;98.70
3356;DHT22;1691;52.486;13.374;2023-08-01T02:06:25;17.60;98.70
3356;DHT22;1691;52.486;13.374;2023-08-01T02:08:51;17.60;98.70
3356;DHT22;1691;52.486;13.374;2023-08-01T02:11:18;17.60;98.70
3356;DHT22;1691;52.486;13.374;2023-08-01T02:13:45;17.60;98.70
3356;DHT22;1691;52.486;13.374;2023-08-01T02:16:12;17.60;98.70
3356;DHT22;1691;52.486;13.374;2023-08-01T02:18:39;17.50;98.70
3356;DHT22;1691;52.486;13.374;2023-08-01T02:21:05;17.50;98.70
3356;DHT22;1691;52.486;13.374;2023-08-01T02:23:32;17.50;98.70
3356;DHT22;1691;52.486;13.374;2023-08-01T02:26:03;17.50;98.70
3356;DHT22;1691;52.486;13.374;2023-08-01T02:28:29;17.50;98.70
3356;DHT22;1691;52.486;13.374;2023-08-01T02:30:56;17.50;98.70
3356;DHT22;1691;52.486;13.374;2023-08-01T02:33:23;17.50;98.70
3356;DHT22;1691;52.486;13.374;2023-08-01T02:35:50;17.50;98.70
3356;DHT22;1691;52.486;13.374;2023-08-01T02:38:17;17.50;98.70
3356;DHT22;1691;52.486;13.374;2023-08-01T02:40:44;17.50;98.70
3356;DHT22;1691;52.486;13.374;2023-08-01T02:43:10;17.50;98.70
3356;DHT22;1691;52.486;13.374;2023-08-01T02:45:37;17.50;98.70
3356;DHT22;1691;52.486;13.374;2023-08-01T02:48:04;17.60;98.70
3356;DHT22;1691;52.486;13.374;2023-08-01T02:50:34;17.60;98.70
3356;DHT22;1691;52.486;13.374;2023-08-01T02:53:26;17.60;98.70
3356;DHT22;1691;52.486;13.374;2023-08-01T02:55:59;17.50;98.70
3356;DHT22;1691;52.486;13.374;2023-08-01T02:58:27;17.60;98.70
3356;DHT22;1691;52.486;13.374;2023-08-01T03:01:18;17.60;98.70
3356;DHT22;1691;52.486;13.374;2023-08-01T03:05:24;17.60;98.70
3356;DHT22;1691;52.486;13.374;2023-08-01T03:07:46;17.60;98.70
3356;DHT22;1691;52.486;13.374;2023-08-01T03:10:35;17.60;98.70
3356;DHT22;1691;52.486;13.374;2023-08-01T03:13:50;17.60;98.70
3356;DHT22;1691;52.486;13.374;2023-08-01T03:16:55;17.60;98.70
3356;DHT22;1691;52.486;13.374;2023-08-01T03:19:49;17.60;98.70
3356;DHT22;1691;52.486;13.374;2023-08-01T03:26:51;17.60;98.70
3356;DHT22;1691;52.486;13.374;2023-08-01T03:29:40;17.60;98.70
3356;DHT22;1691;52.486;13.374;2023-08-01T03:32:47;17.50;98.70
3356;DHT22;1691;52.486;13.374;2023-08-01T03:35:30;17.60;98.70
3356;DHT22;1691;52.486;13.374;2023-08-01T03:38:41;17.50;98.70
3356;DHT22;1691;52.486;13.374;2023-08-01T03:41:56;17.50;98.70
3356;DHT22;1691;52.486;13.374;2023-08-01T03:44:43;17.50;98.70
3356;DHT22;1691;52.486;13.374;2023-08-01T03:47:56;17.50;98.70
3356;DHT22;1691;52.486;13.374;2023-08-01T03:50:53;17.50;98.70
3356;DHT22;1691;52.486;13.374;2023-08-01T03:53:51;17.40;98.70
3356;DHT22;1691;52.486;13.374;2023-08-01T04:05:00;17.50;98.70
3356;DHT22;1691;52.486;13.374;2023-08-01T04:07:57;17.50;98.70
3356;DHT22;1691;52.486;13.374;2023-08-01T04:11:05;17.60;98.70
3356;DHT22;1691;52.486;13.374;2023-08-01T04:14:07;17.70;98.70
3356;DHT22;1691;52.486;13.374;2023-08-01T04:17:14;17.70;98.70
3356;DHT22;1691;52.486;13.374;2023-08-01T04:20:07;17.80;98.70
3356;DHT22;1691;52.486;13.374;2023-08-01T04:23:12;17.80;98.70
3356;DHT22;1691;52.486;13.374;2023-08-01T04:26:04;17.80;98.70
3356;DHT22;1691;52.486;13.374;2023-08-01T04:28:45;17.90;98.70
3356;DHT22;1691;52.486;13.374;2023-08-01T04:31:43;17.90;98.70
3356;DHT22;1691;52.486;13.374;2023-08-01T04:34:48;17.90;98.70
3356;DHT22;1691;52.486;13.374;2023-08-01T04:37:45;18.00;98.70
3356;DHT22;1691;52.486;13.374;2023-08-01T04:40:40;18.10;98.70
3356;DHT22;1691;52.486;13.374;2023-08-01T04:43:19;18.10;98.70
3356;DHT22;1691;52.486;13.374;2023-08-01T04:46:10;18.20;98.70
3356;DHT22;1691;52.486;13.374;2023-08-01T04:48:44;18.20;98.70
3356;DHT22;1691;52.486;13.374;2023-08-01T04:52:01;18.20;98.70
3356;DHT22;1691;52.486;13.374;2023-08-01T04:55:09;18.20;98.70
3356;DHT22;1691;52.486;13.374;2023-08-01T04:58:07;18.30;98.70
3356;DHT22;1691;52.486;13.374;2023-08-01T05:01:38;18.30;98.70
3356;DHT22;1691;52.486;13.374;2023-08-01T05:14:46;18.20;98.70
3356;DHT22;1691;52.486;13.374;2023-08-01T05:17:44;18.20;98.70
3356;DHT22;1691;52.486;13.374;2023-08-01T05:20:25;18.20;98.70
3356;DHT22;1691;52.486;13.374;2023-08-01T05:23:41;18.30;98.70
3356;DHT22;1691;52.486;13.374;2023-08-01T05:26:47;18.30;98.70
3356;DHT22;1691;52.486;13.374;2023-08-01T05:29:49;18.30;98.70
3356;DHT22;1691;52.486;13.374;2023-08-01T05:32:54;18.40;98.70
3356;DHT22;1691;52.486;13.374;2023-08-01T05:35:37;18.40;98.70
3356;DHT22;1691;52.486;13.374;2023-08-01T05:38:43;18.50;98.70
3356;DHT22;1691;52.486;13.374;2023-08-01T05:41:46;18.50;98.70
3356;DHT22;1691;52.486;13.374;2023-08-01T05:44:41;18.60;98.70
3356;DHT22;1691;52.486;13.374;2023-08-01T05:47:42;18.60;98.70
3356;DHT22;1691;52.486;13.374;2023-08-01T05:50:30;18.60;98.70
3356;DHT22;1691;52.486;13.374;2023-08-01T05:53:47;18.60;98.70
3356;DHT22;1691;52.486;13.374;2023-08-01T05:57:07;18.60;98.70
3356;DHT22;1691;52.486;13.374;2023-08-01T05:59:31;18.60;98.70
3356;DHT22;1691;52.486;13.374;2023-08-01T06:02:43;18.60;98.70
3356;DHT22;1691;52.486;13.374;2023-08-01T06:08:42;18.70;98.70
3356;DHT22;1691;52.486;13.374;2023-08-01T06:11:39;18.70;98.70
3356;DHT22;1691;52.486;13.374;2023-08-01T06:21:39;18.90;98.70
3356;DHT22;1691;52.486;13.374;2023-08-01T06:24:23;18.90;98.70
3356;DHT22;1691;52.486;13.374;2023-08-01T06:27:50;18.90;98.70
3356;DHT22;1691;52.486;13.374;2023-08-01T06:31:13;18.90;98.70
3356;DHT22;1691;52.486;13.374;2023-08-01T06:34:33;18.90;98.70
3356;DHT22;1691;52.486;13.374;2023-08-01T06:37:20;18.90;98.70
3356;DHT22;1691;52.486;13.374;2023-08-01T06:40:21;18.90;98.70
3356;DHT22;1691;52.486;13.374;2023-08-01T06:43:18;18.90;98.70
3356;DHT22;1691;52.486;13.374;2023-08-01T06:46:07;18.90;98.70
3356;DHT22;1691;52.486;13.374;2023-08-01T06:49:33;18.90;98.70
3356;DHT22;1691;52.486;13.374;2023-08-01T06:56:44;19.00;98.70
3356;DHT22;1691;52.486;13.374;2023-08-01T06:59:23;19.10;98.70
3356;DHT22;1691;52.486;13.374;2023-08-01T07:02:34;19.10;98.70
3356;DHT22;1691;52.486;13.374;2023-08-01T07:09:35;19.30;98.70
3356;DHT22;1691;52.486;13.374;2023-08-01T07:13:00;19.30;98.70
3356;DHT22;1691;52.486;13.374;2023-08-01T07:16:07;19.40;98.70
3356;DHT22;1691;52.486;13.374;2023-08-01T07:19:44;19.40;98.70
3356;DHT22;1691;52.486;13.374;2023-08-01T07:22:59;19.50;98.70
3356;DHT22;1691;52.486;13.374;2023-08-01T07:29:48;19.90;98.70
3356;DHT22;1691;52.486;13.374;2023-08-01T07:36:31;20.20;98.70
3356;DHT22;1691;52.486;13.374;2023-08-01T07:39:46;20.40;98.70
3356;DHT22;1691;52.486;13.374;2023-08-01T07:43:12;20.50;98.70
3356;DHT22;1691;52.486;13.374;2023-08-01T07:49:37;21.00;98.10
3356;DHT22;1691;52.486;13.374;2023-08-01T07:52:51;21.30;97.40
3356;DHT22;1691;52.486;13.374;2023-08-01T07:56:21;21.70;96.90
3356;DHT22;1691;52.486;13.374;2023-08-01T07:59:21;22.10;96.30
3356;DHT22;1691;52.486;13.374;2023-08-01T08:02:21;22.60;95.20
3356;DHT22;1691;52.486;13.374;2023-08-01T08:04:58;22.80;94.20
3356;DHT22;1691;52.486;13.374;2023-08-01T08:08:00;22.90;93.40
3356;DHT22;1691;52.486;13.374;2023-08-01T08:11:03;23.00;92.80
3356;DHT22;1691;52.486;13.374;2023-08-01T08:13:41;23.20;92.30
3356;DHT22;1691;52.486;13.374;2023-08-01T08:20:00;23.90;91.20
3356;DHT22;1691;52.486;13.374;2023-08-01T08:23:14;24.30;89.90
3356;DHT22;1691;52.486;13.374;2023-08-01T08:26:19;24.80;88.40
3356;DHT22;1691;52.486;13.374;2023-08-01T08:29:36;25.30;86.20
3356;DHT22;1691;52.486;13.374;2023-08-01T08:32:23;25.40;85.60
3356;DHT22;1691;52.486;13.374;2023-08-01T08:35:18;25.40;84.50
3356;DHT22;1691;52.486;13.374;2023-08-01T08:38:33;25.40;83.60
3356;DHT22;1691;52.486;13.374;2023-08-01T08:42:26;25.50;82.60
3356;DHT22;1691;52.486;13.374;2023-08-01T08:45:35;25.50;81.70
3356;DHT22;1691;52.486;13.374;2023-08-01T08:48:12;25.40;81.90
3356;DHT22;1691;52.486;13.374;2023-08-01T08:51:01;25.20;82.10
3356;DHT22;1691;52.486;13.374;2023-08-01T08:56:59;24.80;81.90
3356;DHT22;1691;52.486;13.374;2023-08-01T08:59:54;24.40;82.30
3356;DHT22;1691;52.486;13.374;2023-08-01T09:02:35;24.30;83.40
3356;DHT22;1691;52.486;13.374;2023-08-01T09:05:34;24.30;83.20
3356;DHT22;1691;52.486;13.374;2023-08-01T09:12:38;24.50;81.50
3356;DHT22;1691;52.486;13.374;2023-08-01T09:15:42;24.60;81.90
3356;DHT22;1691;52.486;13.374;2023-08-01T09:18:50;24.90;81.30
3356;DHT22;1691;52.486;13.374;2023-08-01T09:21:35;25.20;79.80
3356;DHT22;1691;52.486;13.374;2023-08-01T09:24:12;25.60;78.90
3356;DHT22;1691;52.486;13.374;2023-08-01T09:26:40;25.90;77.00
3356;DHT22;1691;52.486;13.374;2023-08-01T09:29:08;26.20;75.40
3356;DHT22;1691;52.486;13.374;2023-08-01T09:31:38;26.30;73.70
3356;DHT22;1691;52.486;13.374;2023-08-01T09:34:21;26.30;72.60
3356;DHT22;1691;52.486;13.374;2023-08-01T09:36:49;26.20;71.60
3356;DHT22;1691;52.486;13.374;2023-08-01T09:39:17;25.90;72.00
3356;DHT22;1691;52.486;13.374;2023-08-01T09:41:45;25.50;72.20
3356;DHT22;1691;52.486;13.374;2023-08-01T09:44:15;25.00;73.30
3356;DHT22;1691;52.486;13.374;2023-08-01T09:46:42;24.50;75.20
3356;DHT22;1691;52.486;13.374;2023-08-01T09:49:11;24.00;76.50
3356;DHT22;1691;52.486;13.374;2023-08-01T09:51:48;23.60;78.00
3356;DHT22;1691;52.486;13.374;2023-08-01T09:54:16;23.50;78.70
3356;DHT22;1691;52.486;13.374;2023-08-01T09:56:48;23.50;78.90
3356;DHT22;1691;52.486;13.374;2023-08-01T09:59:21;23.70;78.30
3356;DHT22;1691;52.486;13.374;2023-08-01T10:01:51;23.90;77.80
3356;DHT22;1691;52.486;13.374;2023-08-01T10:04:21;24.10;76.90
3356;DHT22;1691;52.486;13.374;2023-08-01T10:06:59;24.20;76.30
3356;DHT22;1691;52.486;13.374;2023-08-01T10:09:27;24.20;76.10
3356;DHT22;1691;52.486;13.374;2023-08-01T10:11:57;24.10;76.30
3356;DHT22;1691;52.486;13.374;2023-08-01T10:14:25;24.00;76.50
3356;DHT22;1691;52.486;13.374;2023-08-01T10:16:52;23.90;77.00
3356;DHT22;1691;52.486;13.374;2023-08-01T10:19:20;23.70;77.00
3356;DHT22;1691;52.486;13.374;2023-08-01T10:21:47;23.50;77.40
3356;DHT22;1691;52.486;13.374;2023-08-01T10:24:15;23.30;78.20
3356;DHT22;1691;52.486;13.374;2023-08-01T10:26:46;23.10;78.90
3356;DHT22;1691;52.486;13.374;2023-08-01T10:29:13;23.00;79.50
3356;DHT22;1691;52.486;13.374;2023-08-01T10:31:53;23.00;80.00
3356;DHT22;1691;52.486;13.374;2023-08-01T10:34:20;23.10;80.20
3356;DHT22;1691;52.486;13.374;2023-08-01T10:36:55;23.10;80.20
3356;DHT22;1691;52.486;13.374;2023-08-01T10:39:23;23.10;80.20
3356;DHT22;1691;52.486;13.374;2023-08-01T10:44:26;22.90;80.60
3356;DHT22;1691;52.486;13.374;2023-08-01T10:47:01;22.70;81.50
3356;DHT22;1691;52.486;13.374;2023-08-01T10:52:03;21.60;86.40
3356;DHT22;1691;52.486;13.374;2023-08-01T10:54:29;21.10;89.50
3356;DHT22;1691;52.486;13.374;2023-08-01T10:56:59;20.70;91.00
3356;DHT22;1691;52.486;13.374;2023-08-01T10:59:26;20.40;92.30
3356;DHT22;1691;52.486;13.374;2023-08-01T11:01:57;20.30;93.20
3356;DHT22;1691;52.486;13.374;2023-08-01T11:04:24;20.20;94.00
3356;DHT22;1691;52.486;13.374;2023-08-01T11:06:53;20.20;94.60
3356;DHT22;1691;52.486;13.374;2023-08-01T11:09:23;20.20;95.10
3356;DHT22;1691;52.486;13.374;2023-08-01T11:11:53;20.20;95.50
3356;DHT22;1691;52.486;13.374;2023-08-01T11:14:21;20.10;95.80
3356;DHT22;1691;52.486;13.374;2023-08-01T11:16:49;20.00;96.00
3356;DHT22;1691;52.486;13.374;2023-08-01T11:19:30;19.90;96.40
3356;DHT22;1691;52.486;13.374;2023-08-01T11:21:57;19.80;96.70
3356;DHT22;1691;52.486;13.374;2023-08-01T11:24:25;19.80;96.90
3356;DHT22;1691;52.486;13.374;2023-08-01T11:26:53;19.70;97.20
3356;DHT22;1691;52.486;13.374;2023-08-01T11:29:22;19.80;97.60
3356;DHT22;1691;52.486;13.374;2023-08-01T11:31:59;19.90;97.90
3356;DHT22;1691;52.486;13.374;2023-08-01T11:34:26;20.10;97.90
3356;DHT22;1691;52.486;13.374;2023-08-01T11:36:54;20.20;97.60
3356;DHT22;1691;52.486;13.374;2023-08-01T11:39:21;20.40;97.30
3356;DHT22;1691;52.486;13.374;2023-08-01T11:41:49;20.60;97.10
3356;DHT22;1691;52.486;13.374;2023-08-01T11:44:16;20.70;96.70
3356;DHT22;1691;52.486;13.374;2023-08-01T11:46:43;21.00;96.50
3356;DHT22;1691;52.486;13.374;2023-08-01T11:49:14;21.20;95.90
3356;DHT22;1691;52.486;13.374;2023-08-01T11:51:43;21.30;95.10
3356;DHT22;1691;52.486;13.374;2023-08-01T11:54:10;21.40;94.60
3356;DHT22;1691;52.486;13.374;2023-08-01T11:56:39;21.50;94.20
3356;DHT22;1691;52.486;13.374;2023-08-01T11:59:11;21.50;93.60
3356;DHT22;1691;52.486;13.374;2023-08-01T12:01:39;21.50;93.20
3356;DHT22;1691;52.486;13.374;2023-08-01T12:04:07;21.50;93.00
3356;DHT22;1691;52.486;13.374;2023-08-01T12:06:35;21.60;92.80
3356;DHT22;1691;52.486;13.374;2023-08-01T12:09:08;21.80;92.70
3356;DHT22;1691;52.486;13.374;2023-08-01T12:11:35;22.10;92.20
3356;DHT22;1691;52.486;13.374;2023-08-01T12:14:14;22.40;91.50
3356;DHT22;1691;52.486;13.374;2023-08-01T12:16:42;22.60;91.10
3356;DHT22;1691;52.486;13.374;2023-08-01T12:19:20;23.00;90.60
3356;DHT22;1691;52.486;13.374;2023-08-01T12:21:48;23.30;89.30
3356;DHT22;1691;52.486;13.374;2023-08-01T12:24:15;23.40;88.40
3356;DHT22;1691;52.486;13.374;2023-08-01T12:26:41;23.40;87.10
3356;DHT22;1691;52.486;13.374;2023-08-01T12:29:09;23.30;86.00
3356;DHT22;1691;52.486;13.374;2023-08-01T12:31:37;23.20;85.20
3356;DHT22;1691;52.486;13.374;2023-08-01T12:34:04;23.10;84.90
3356;DHT22;1691;52.486;13.374;2023-08-01T12:36:31;23.20;84.30
3356;DHT22;1691;52.486;13.374;2023-08-01T12:38:57;23.20;83.40
3356;DHT22;1691;52.486;13.374;2023-08-01T12:41:24;23.20;83.20
3356;DHT22;1691;52.486;13.374;2023-08-01T12:43:53;23.40;83.20
3356;DHT22;1691;52.486;13.374;2023-08-01T12:46:20;23.60;82.30
3356;DHT22;1691;52.486;13.374;2023-08-01T12:48:46;23.70;81.50
3356;DHT22;1691;52.486;13.374;2023-08-01T12:51:13;23.70;80.60
3356;DHT22;1691;52.486;13.374;2023-08-01T12:53:41;23.70;80.00
3356;DHT22;1691;52.486;13.374;2023-08-01T12:56:09;23.70;80.00
3356;DHT22;1691;52.486;13.374;2023-08-01T12:58:36;23.60;79.80
3356;DHT22;1691;52.486;13.374;2023-08-01T13:01:03;23.60;79.80
3356;DHT22;1691;52.486;13.374;2023-08-01T13:03:32;23.60;79.50
3356;DHT22;1691;52.486;13.374;2023-08-01T13:05:59;23.60;79.30
3356;DHT22;1691;52.486;13.374;2023-08-01T13:08:26;23.60;78.90
3356;DHT22;1691;52.486;13.374;2023-08-01T13:10:53;23.70;78.70
3356;DHT22;1691;52.486;13.374;2023-08-01T13:13:20;23.90;78.20
3356;DHT22;1691;52.486;13.374;2023-08-01T13:15:46;24.00;77.40
3356;DHT22;1691;52.486;13.374;2023-08-01T13:18:13;24.10;77.00
3356;DHT22;1691;52.486;13.374;2023-08-01T13:20:40;24.10;76.90
3356;DHT22;1691;52.486;13.374;2023-08-01T13:23:07;24.20;76.90
3356;DHT22;1691;52.486;13.374;2023-08-01T13:25:35;24.20;76.50
3356;DHT22;1691;52.486;13.374;2023-08-01T13:28:03;24.20;76.50
3356;DHT22;1691;52.486;13.374;2023-08-01T13:30:30;24.20;76.10
3356;DHT22;1691;52.486;13.374;2023-08-01T13:32:57;24.10;76.10
3356;DHT22;1691;52.486;13.374;2023-08-01T13:35:24;24.10;75.90
3356;DHT22;1691;52.486;13.374;2023-08-01T13:37:50;24.00;75.90
3356;DHT22;1691;52.486;13.374;2023-08-01T13:40:17;23.90;76.10
3356;DHT22;1691;52.486;13.374;2023-08-01T13:42:44;23.90;76.10
3356;DHT22;1691;52.486;13.374;2023-08-01T13:45:11;23.90;76.30
3356;DHT22;1691;52.486;13.374;2023-08-01T13:47:38;23.90;75.90
3356;DHT22;1691;52.486;13.374;2023-08-01T13:50:06;23.90;75.60
3356;DHT22;1691;52.486;13.374;2023-08-01T13:52:33;23.90;75.40
3356;DHT22;1691;52.486;13.374;2023-08-01T13:54:59;23.80;75.20
3356;DHT22;1691;52.486;13.374;2023-08-01T13:57:29;23.70;75.40
3356;DHT22;1691;52.486;13.374;2023-08-01T13:59:56;23.70;75.60
3356;DHT22;1691;52.486;13.374;2023-08-01T14:02:38;23.80;75.40
3356;DHT22;1691;52.486;13.374;2023-08-01T14:05:05;23.90;74.80
3356;DHT22;1691;52.486;13.374;2023-08-01T14:07:35;24.00;74.60
3356;DHT22;1691;52.486;13.374;2023-08-01T14:10:05;24.00;74.20
3356;DHT22;1691;52.486;13.374;2023-08-01T14:12:32;24.00;74.10
3356;DHT22;1691;52.486;13.374;2023-08-01T14:14:59;24.00;73.50
3356;DHT22;1691;52.486;13.374;2023-08-01T14:17:26;24.00;72.90
3356;DHT22;1691;52.486;13.374;2023-08-01T14:19:53;23.90;72.80
3356;DHT22;1691;52.486;13.374;2023-08-01T14:22:20;23.90;72.80
3356;DHT22;1691;52.486;13.374;2023-08-01T14:24:47;23.90;72.60
3356;DHT22;1691;52.486;13.374;2023-08-01T14:27:13;24.00;72.00
3356;DHT22;1691;52.486;13.374;2023-08-01T14:29:40;24.00;71.80
3356;DHT22;1691;52.486;13.374;2023-08-01T14:32:07;24.00;71.50
3356;DHT22;1691;52.486;13.374;2023-08-01T14:34:34;24.10;70.90
3356;DHT22;1691;52.486;13.374;2023-08-01T14:37:01;24.10;70.50
3356;DHT22;1691;52.486;13.374;2023-08-01T14:39:28;24.10;70.30
3356;DHT22;1691;52.486;13.374;2023-08-01T14:41:55;24.20;70.00
3356;DHT22;1691;52.486;13.374;2023-08-01T14:44:25;24.20;69.80
3356;DHT22;1691;52.486;13.374;2023-08-01T14:46:51;24.10;69.60
3356;DHT22;1691;52.486;13.374;2023-08-01T14:49:21;24.10;69.60
3356;DHT22;1691;52.486;13.374;2023-08-01T14:51:48;24.00;69.60
3356;DHT22;1691;52.486;13.374;2023-08-01T14:54:18;24.00;69.80
3356;DHT22;1691;52.486;13.374;2023-08-01T14:57:05;24.00;69.60
3356;DHT22;1691;52.486;13.374;2023-08-01T14:59:32;24.10;69.00
3356;DHT22;1691;52.486;13.374;2023-08-01T15:01:59;24.00;68.70
3356;DHT22;1691;52.486;13.374;2023-08-01T15:04:26;23.90;68.50
3356;DHT22;1691;52.486;13.374;2023-08-01T15:06:53;23.70;68.30
3356;DHT22;1691;52.486;13.374;2023-08-01T15:09:21;23.60;68.70
3356;DHT22;1691;52.486;13.374;2023-08-01T15:11:48;23.60;68.80
3356;DHT22;1691;52.486;13.374;2023-08-01T15:14:15;23.50;69.60
3356;DHT22;1691;52.486;13.374;2023-08-01T15:16:41;23.30;70.30
3356;DHT22;1691;52.486;13.374;2023-08-01T15:19:09;23.00;71.80
3356;DHT22;1691;52.486;13.374;2023-08-01T15:21:36;22.40;73.70
3356;DHT22;1691;52.486;13.374;2023-08-01T15:24:03;21.60;76.70
3356;DHT22;1691;52.486;13.374;2023-08-01T15:26:30;20.90;80.80
3356;DHT22;1691;52.486;13.374;2023-08-01T15:28:57;20.20;85.10
3356;DHT22;1691;52.486;13.374;2023-08-01T15:31:23;19.80;88.20
3356;DHT22;1691;52.486;13.374;2023-08-01T15:33:51;19.50;90.10
3356;DHT22;1691;52.486;13.374;2023-08-01T15:36:26;19.40;91.10
3356;DHT22;1691;52.486;13.374;2023-08-01T15:38:53;19.30;92.00
3356;DHT22;1691;52.486;13.374;2023-08-01T15:41:20;19.30;92.50
3356;DHT22;1691;52.486;13.374;2023-08-01T15:43:47;19.30;92.90
3356;DHT22;1691;52.486;13.374;2023-08-01T15:46:14;19.30;93.20
3356;DHT22;1691;52.486;13.374;2023-08-01T15:48:41;19.30;93.70
3356;DHT22;1691;52.486;13.374;2023-08-01T15:51:08;19.40;94.00
3356;DHT22;1691;52.486;13.374;2023-08-01T15:53:35;19.50;94.10
3356;DHT22;1691;52.486;13.374;2023-08-01T15:56:05;19.50;94.30
3356;DHT22;1691;52.486;13.374;2023-08-01T15:58:32;19.60;94.40
3356;DHT22;1691;52.486;13.374;2023-08-01T16:01:00;19.70;94.70
3356;DHT22;1691;52.486;13.374;2023-08-01T16:03:27;19.90;94.90
3356;DHT22;1691;52.486;13.374;2023-08-01T16:05:55;20.10;95.00
3356;DHT22;1691;52.486;13.374;2023-08-01T16:08:22;20.20;94.70
3356;DHT22;1691;52.486;13.374;2023-08-01T16:10:49;20.30;94.50
3356;DHT22;1691;52.486;13.374;2023-08-01T16:13:16;20.40;94.50
3356;DHT22;1691;52.486;13.374;2023-08-01T16:15:43;20.50;94.30
3356;DHT22;1691;52.486;13.374;2023-08-01T16:18:10;20.50;94.20
3356;DHT22;1691;52.486;13.374;2023-08-01T16:20:36;20.50;94.00
3356;DHT22;1691;52.486;13.374;2023-08-01T16:23:04;20.50;93.90
3356;DHT22;1691;52.486;13.374;2023-08-01T16:25:31;20.60;93.80
3356;DHT22;1691;52.486;13.374;2023-08-01T16:27:59;20.60;93.70
3356;DHT22;1691;52.486;13.374;2023-08-01T16:30:26;20.60;93.50
3356;DHT22;1691;52.486;13.374;2023-08-01T16:32:53;20.60;93.30
3356;DHT22;1691;52.486;13.374;2023-08-01T16:35:20;20.60;93.00
3356;DHT22;1691;52.486;13.374;2023-08-01T16:37:47;20.60;92.60
3356;DHT22;1691;52.486;13.374;2023-08-01T16:40:14;20.60;92.10
3356;DHT22;1691;52.486;13.374;2023-08-01T16:42:41;20.50;91.70
3356;DHT22;1691;52.486;13.374;2023-08-01T16:45:09;20.50;91.20
3356;DHT22;1691;52.486;13.374;2023-08-01T16:47:37;20.50;91.10
3356;DHT22;1691;52.486;13.374;2023-08-01T16:50:16;20.60;91.00
3356;DHT22;1691;52.486;13.374;2023-08-01T16:52:44;20.60;90.80
3356;DHT22;1691;52.486;13.374;2023-08-01T16:55:11;20.70;90.80
3356;DHT22;1691;52.486;13.374;2023-08-01T16:57:39;20.80;90.80
3356;DHT22;1691;52.486;13.374;2023-08-01T17:00:07;20.80;91.00
3356;DHT22;1691;52.486;13.374;2023-08-01T17:02:36;20.70;91.40
3356;DHT22;1691;52.486;13.374;2023-08-01T17:05:03;20.60;91.80
3356;DHT22;1691;52.486;13.374;2023-08-01T17:07:31;20.70;92.20
3356;DHT22;1691;52.486;13.374;2023-08-01T17:10:00;20.90;92.10
3356;DHT22;1691;52.486;13.374;2023-08-01T17:12:27;21.00;91.90
3356;DHT22;1691;52.486;13.374;2023-08-01T17:14:54;21.10;91.60
3356;DHT22;1691;52.486;13.374;2023-08-01T17:17:21;21.10;91.50
3356;DHT22;1691;52.486;13.374;2023-08-01T17:19:48;21.20;91.50
3356;DHT22;1691;52.486;13.374;2023-08-01T17:22:15;21.30;91.00
3356;DHT22;1691;52.486;13.374;2023-08-01T17:24:42;21.30;90.90
3356;DHT22;1691;52.486;13.374;2023-08-01T17:27:09;21.30;90.40
3356;DHT22;1691;52.486;13.374;2023-08-01T17:29:36;21.10;90.30
3356;DHT22;1691;52.486;13.374;2023-08-01T17:32:03;20.90;90.50
3356;DHT22;1691;52.486;13.374;2023-08-01T17:34:31;20.80;90.60
3356;DHT22;1691;52.486;13.374;2023-08-01T17:36:59;20.70;90.60
3356;DHT22;1691;52.486;13.374;2023-08-01T17:39:26;20.60;90.70
3356;DHT22;1691;52.486;13.374;2023-08-01T17:41:54;20.60;90.70
3356;DHT22;1691;52.486;13.374;2023-08-01T17:44:23;20.60;90.70
3356;DHT22;1691;52.486;13.374;2023-08-01T17:46:52;20.50;90.80
3356;DHT22;1691;52.486;13.374;2023-08-01T17:49:18;20.50;90.80
3356;DHT22;1691;52.486;13.374;2023-08-01T17:51:45;20.50;90.70
3356;DHT22;1691;52.486;13.374;2023-08-01T17:54:12;20.60;90.70
3356;DHT22;1691;52.486;13.374;2023-08-01T17:56:39;20.60;90.70
3356;DHT22;1691;52.486;13.374;2023-08-01T17:59:08;20.60;90.60